createdAt,value
2018-08-20T00:02:22.469Z,4.63
2018-08-20T00:04:51.152Z,5.30
2018-08-20T00:07:19.033Z,4.73
2018-08-20T00:09:48.279Z,5.10
2018-08-20T00:12:17.809Z,3.93
2018-08-20T00:14:46.001Z,5.60
2018-08-20T00:17:13.694Z,4.90
2018-08-20T00:19:41.323Z,4.57
2018-08-20T00:22:09.916Z,5.50
2018-08-20T00:24:37.666Z,4.83
2018-08-20T00:27:05.305Z,6.13
2018-08-20T00:29:36.594Z,4.20
2018-08-20T00:32:04.568Z,5.07
2018-08-20T00:34:32.214Z,4.83
2018-08-20T00:36:59.779Z,4.97
2018-08-20T00:39:27.426Z,4.80
2018-08-20T00:41:55.584Z,5.20
2018-08-20T00:44:23.261Z,5.23
2018-08-20T00:46:50.843Z,6.40
2018-08-20T00:49:18.578Z,5.07
2018-08-20T00:51:46.216Z,6.07
2018-08-20T00:54:14.433Z,5.80
2018-08-20T00:56:42.039Z,4.90
2018-08-20T00:59:09.643Z,5.30
2018-08-20T01:01:37.239Z,7.37
2018-08-20T01:04:04.993Z,6.13
2018-08-20T01:06:32.586Z,5.57
2018-08-20T01:09:00.227Z,5.13
2018-08-20T01:11:27.837Z,4.73
2018-08-20T01:13:55.391Z,4.73
2018-08-20T01:16:23.240Z,5.73
2018-08-20T01:18:51.503Z,5.30
2018-08-20T01:21:19.239Z,6.40
2018-08-20T01:23:47.543Z,5.20
2018-08-20T01:26:15.152Z,7.43
2018-08-20T01:28:42.712Z,6.53
2018-08-20T01:31:10.356Z,6.37
2018-08-20T01:33:37.975Z,5.53
2018-08-20T01:36:05.740Z,5.50
2018-08-20T01:38:33.429Z,5.03
2018-08-20T01:41:01.467Z,5.80
2018-08-20T01:43:29.245Z,4.83
2018-08-20T01:45:56.960Z,6.17
2018-08-20T01:48:24.618Z,5.63
2018-08-20T01:50:52.496Z,6.03
2018-08-20T01:53:20.019Z,5.37
2018-08-20T01:55:47.789Z,6.17
2018-08-20T01:58:15.372Z,5.53
2018-08-20T02:00:43.025Z,6.63
2018-08-20T02:03:10.882Z,6.20
2018-08-20T02:05:38.768Z,6.03
2018-08-20T02:08:06.636Z,6.27
2018-08-20T02:10:34.224Z,6.27
2018-08-20T02:13:02.387Z,5.80
2018-08-20T02:15:30.116Z,6.60
2018-08-20T02:17:57.661Z,5.93
2018-08-20T02:20:25.268Z,8.43
2018-08-20T02:22:52.905Z,5.03
2018-08-20T02:25:20.498Z,6.27
2018-08-20T02:27:48.282Z,6.67
2018-08-20T02:30:15.885Z,5.93
2018-08-20T02:32:44.128Z,5.70
2018-08-20T02:35:11.809Z,6.37
2018-08-20T02:37:47.160Z,9.60
2018-08-20T02:40:16.054Z,7.77
2018-08-20T02:42:43.939Z,8.87
2018-08-20T02:45:15.399Z,7.13
2018-08-20T02:47:43.659Z,6.10
2018-08-20T02:50:11.907Z,6.23
2018-08-20T02:52:39.872Z,6.30
2018-08-20T02:55:08.184Z,7.43
2018-08-20T02:57:35.754Z,6.80
2018-08-20T03:00:04.724Z,7.97
2018-08-20T03:02:32.415Z,7.40
2018-08-20T03:05:00.070Z,6.25
2018-08-20T03:07:27.633Z,5.83
2018-08-20T03:09:55.341Z,8.40
2018-08-20T03:12:22.934Z,6.83
2018-08-20T03:14:50.560Z,6.20
2018-08-20T03:17:18.324Z,7.47
2018-08-20T03:19:46.021Z,6.65
2018-08-20T03:22:13.648Z,9.33
2018-08-20T03:24:41.306Z,6.30
2018-08-20T03:27:09.371Z,8.95
2018-08-20T03:29:36.981Z,7.37
2018-08-20T03:32:04.648Z,6.67
2018-08-20T03:34:32.668Z,8.08
2018-08-20T03:37:00.747Z,7.60
2018-08-20T03:39:28.339Z,6.57
2018-08-20T03:41:55.966Z,7.55
2018-08-20T03:44:23.670Z,5.90
2018-08-20T03:46:51.293Z,6.50
2018-08-20T03:49:19.004Z,7.92
2018-08-20T03:51:46.707Z,7.62
2018-08-20T03:54:14.488Z,7.67
2018-08-20T03:56:42.678Z,7.20
2018-08-20T03:59:25.020Z,6.90
2018-08-20T04:01:52.665Z,7.10
2018-08-20T04:04:20.446Z,9.10
2018-08-20T04:06:48.204Z,7.47
2018-08-20T04:09:15.847Z,7.30
2018-08-20T04:11:43.425Z,6.37
2018-08-20T04:14:10.984Z,6.42
2018-08-20T04:16:38.651Z,7.35
2018-08-20T04:19:08.053Z,7.37
2018-08-20T04:21:36.442Z,8.25
2018-08-20T04:24:04.705Z,8.05
2018-08-20T04:26:33.265Z,7.60
2018-08-20T04:29:01.195Z,8.10
2018-08-20T04:31:28.782Z,7.67
2018-08-20T04:33:56.581Z,9.75
2018-08-20T04:36:24.517Z,8.07
2018-08-20T04:38:52.194Z,9.80
2018-08-20T04:41:19.979Z,8.37
2018-08-20T04:43:47.558Z,6.70
2018-08-20T04:46:15.809Z,9.63
2018-08-20T04:48:43.539Z,6.93
2018-08-20T04:51:11.322Z,8.40
2018-08-20T04:53:38.849Z,7.80
2018-08-20T04:56:06.656Z,7.80
2018-08-20T04:58:34.228Z,6.77
2018-08-20T05:01:01.842Z,7.70
2018-08-20T05:03:29.917Z,7.60
2018-08-20T05:05:57.539Z,6.53
2018-08-20T05:08:25.181Z,6.70
2018-08-20T05:10:52.696Z,7.23
2018-08-20T05:13:20.503Z,7.63
2018-08-20T05:15:48.236Z,7.30
2018-08-20T05:18:15.895Z,10.90
2018-08-20T05:20:43.765Z,8.30
2018-08-20T05:23:11.379Z,9.23
2018-08-20T05:25:39.011Z,8.30
2018-08-20T05:28:06.608Z,7.63
2018-08-20T05:30:34.270Z,7.10
2018-08-20T05:33:01.985Z,7.93
2018-08-20T05:35:29.628Z,8.90
2018-08-20T05:37:58.737Z,6.97
2018-08-20T05:40:26.395Z,7.10
2018-08-20T05:42:54.117Z,8.77
2018-08-20T05:45:21.881Z,7.53
2018-08-20T05:47:49.485Z,7.03
2018-08-20T05:50:17.156Z,7.40
2018-08-20T05:52:45.116Z,7.73
2018-08-20T05:55:13.020Z,7.10
2018-08-20T05:57:40.636Z,7.60
2018-08-20T06:00:12.279Z,7.23
2018-08-20T06:02:39.930Z,8.43
2018-08-20T06:05:07.617Z,7.17
2018-08-20T06:07:35.320Z,7.40
2018-08-20T06:10:03.356Z,10.27
2018-08-20T06:12:31.064Z,7.50
2018-08-20T06:14:59.122Z,7.80
2018-08-20T06:17:26.636Z,7.90
2018-08-20T06:19:54.259Z,8.43
2018-08-20T06:22:22.387Z,7.10
2018-08-20T06:24:50.023Z,6.07
2018-08-20T06:27:17.748Z,5.47
2018-08-20T06:29:45.461Z,6.50
2018-08-20T06:32:13.341Z,5.40
2018-08-20T06:34:41.071Z,6.50
2018-08-20T06:37:08.695Z,6.00
2018-08-20T06:39:36.606Z,6.60
2018-08-20T06:42:04.327Z,7.10
2018-08-20T06:44:32.127Z,6.23
2018-08-20T06:46:59.788Z,8.23
2018-08-20T06:49:27.539Z,5.60
2018-08-20T06:51:55.182Z,5.87
2018-08-20T06:54:22.841Z,6.20
2018-08-20T06:56:50.404Z,5.83
2018-08-20T06:59:18.062Z,5.20
2018-08-20T07:01:45.972Z,6.63
2018-08-20T07:04:13.533Z,7.20
2018-08-20T07:06:41.280Z,6.87
2018-08-20T07:09:09.024Z,7.33
2018-08-20T07:11:37.129Z,6.53
2018-08-20T07:14:04.721Z,8.43
2018-08-20T07:16:32.543Z,7.17
2018-08-20T07:19:00.196Z,6.97
2018-08-20T07:21:28.529Z,8.60
2018-08-20T07:23:56.330Z,7.43
2018-08-20T07:26:23.866Z,8.23
2018-08-20T07:28:51.625Z,6.90
2018-08-20T07:31:19.533Z,6.47
2018-08-20T07:33:47.212Z,6.90
2018-08-20T07:36:16.093Z,6.90
2018-08-20T07:38:43.829Z,7.77
2018-08-20T07:41:11.701Z,7.80
2018-08-20T07:43:39.490Z,7.03
2018-08-20T07:46:07.225Z,7.83
2018-08-20T07:48:35.010Z,6.37
2018-08-20T07:51:02.764Z,6.20
2018-08-20T07:53:30.925Z,7.93
2018-08-20T07:55:58.557Z,6.47
2018-08-20T07:58:26.272Z,7.27
2018-08-20T08:00:53.900Z,5.90
2018-08-20T08:03:27.285Z,6.90
2018-08-20T08:05:55.164Z,9.27
2018-08-20T08:08:23.091Z,6.60
2018-08-20T08:10:52.176Z,6.27
2018-08-20T08:13:19.790Z,7.70
2018-08-20T08:15:47.397Z,11.80
2018-08-20T08:18:15.203Z,6.50
2018-08-20T08:20:43.123Z,7.87
2018-08-20T08:23:10.723Z,6.93
2018-08-20T08:25:38.355Z,6.90
2018-08-20T08:28:06.108Z,5.77
2018-08-20T08:30:34.507Z,7.40
2018-08-20T08:33:02.310Z,6.87
2018-08-20T08:35:30.121Z,6.97
2018-08-20T08:37:58.031Z,6.70
2018-08-20T08:40:25.905Z,6.37
2018-08-20T08:42:53.720Z,5.63
2018-08-20T08:45:21.456Z,6.70
2018-08-20T08:47:49.250Z,7.70
2018-08-20T08:50:17.630Z,10.60
2018-08-20T08:52:45.957Z,7.27
2018-08-20T08:55:13.665Z,6.30
2018-08-20T08:57:41.414Z,9.30
2018-08-20T09:00:15.578Z,7.33
2018-08-20T09:02:43.312Z,7.50
2018-08-20T09:05:12.398Z,7.43
2018-08-20T09:07:40.960Z,6.50
2018-08-20T09:10:09.043Z,6.13
2018-08-20T09:12:38.215Z,9.80
2018-08-20T09:15:08.840Z,7.17
2018-08-20T09:17:36.798Z,7.50
2018-08-20T09:20:06.577Z,6.70
2018-08-20T09:22:34.227Z,7.73
2018-08-20T09:25:02.135Z,6.97
2018-08-20T09:27:29.966Z,7.00
2018-08-20T09:29:57.648Z,7.13
2018-08-20T09:32:25.359Z,7.23
2018-08-20T09:34:52.933Z,9.37
2018-08-20T09:37:20.522Z,6.37
2018-08-20T09:39:48.127Z,10.60
2018-08-20T09:42:15.956Z,7.47
2018-08-20T09:44:44.084Z,7.90
2018-08-20T09:47:11.713Z,6.03
2018-08-20T09:49:40.430Z,8.40
2018-08-20T09:52:08.336Z,5.70
2018-08-20T09:54:36.076Z,6.63
2018-08-20T09:57:03.744Z,9.37
2018-08-20T09:59:31.594Z,5.73
2018-08-20T10:01:59.253Z,6.00
2018-08-20T10:04:26.880Z,6.17
2018-08-20T10:06:54.635Z,3.17
2018-08-20T10:09:22.218Z,4.33
2018-08-20T10:11:50.010Z,4.10
2018-08-20T10:14:18.469Z,4.30
2018-08-20T10:16:47.172Z,4.17
2018-08-20T10:19:14.918Z,6.97
2018-08-20T10:21:43.027Z,3.93
2018-08-20T10:24:10.772Z,4.37
2018-08-20T10:26:38.556Z,4.13
2018-08-20T10:29:06.577Z,4.73
2018-08-20T10:31:34.592Z,4.20
2018-08-20T10:34:02.245Z,5.33
2018-08-20T10:36:29.865Z,3.50
2018-08-20T10:38:57.602Z,3.03
2018-08-20T10:41:25.808Z,4.33
2018-08-20T10:43:53.604Z,3.90
2018-08-20T10:46:25.272Z,4.70
2018-08-20T10:48:53.668Z,5.07
2018-08-20T10:51:21.512Z,5.27
2018-08-20T10:53:49.871Z,5.27
2018-08-20T10:56:17.507Z,6.27
2018-08-20T10:58:45.621Z,4.80
2018-08-20T11:01:13.315Z,4.10
2018-08-20T11:03:47.056Z,4.17
2018-08-20T11:06:15.977Z,4.23
2018-08-20T11:08:43.668Z,4.40
2018-08-20T11:11:11.366Z,3.83
2018-08-20T11:13:39.098Z,3.57
2018-08-20T11:16:06.736Z,5.27
2018-08-20T11:18:34.571Z,4.63
2018-08-20T11:21:02.117Z,5.00
2018-08-20T11:23:29.633Z,5.13
2018-08-20T11:25:57.240Z,4.50
2018-08-20T11:28:24.789Z,4.60
2018-08-20T11:30:52.357Z,6.90
2018-08-20T11:33:19.916Z,5.63
2018-08-20T11:35:47.703Z,3.93
2018-08-20T11:38:15.313Z,5.07
2018-08-20T11:40:43.127Z,5.20
2018-08-20T11:43:10.750Z,4.80
2018-08-20T11:45:38.469Z,5.50
2018-08-20T11:48:06.014Z,4.93
2018-08-20T11:50:33.640Z,5.60
2018-08-20T11:53:01.295Z,8.20
2018-08-20T11:55:28.836Z,4.47
2018-08-20T11:57:57.288Z,5.83
2018-08-20T12:00:25.009Z,5.13
2018-08-20T12:02:52.642Z,4.33
2018-08-20T12:05:20.339Z,4.00
2018-08-20T12:07:48.012Z,5.43
2018-08-20T12:10:15.600Z,5.50
2018-08-20T12:12:43.291Z,5.00
2018-08-20T12:15:11.907Z,5.00
2018-08-20T12:17:40.056Z,5.93
2018-08-20T12:20:08.447Z,8.27
2018-08-20T12:22:36.484Z,5.50
2018-08-20T12:25:05.072Z,5.93
2018-08-20T12:27:32.769Z,5.77
2018-08-20T12:30:00.434Z,5.80
2018-08-20T12:32:28.019Z,4.63
2018-08-20T12:34:55.560Z,8.93
2018-08-20T12:37:23.364Z,10.67
2018-08-20T12:39:51.038Z,4.97
2018-08-20T12:42:18.909Z,5.50
2018-08-20T12:44:47.145Z,4.60
2018-08-20T12:47:14.888Z,4.90
2018-08-20T12:49:42.671Z,4.70
2018-08-20T12:52:10.222Z,5.60
2018-08-20T12:54:37.847Z,4.30
2018-08-20T12:57:05.435Z,4.20
2018-08-20T12:59:33.049Z,4.20
2018-08-20T13:02:00.731Z,3.57
2018-08-20T13:04:28.382Z,4.47
2018-08-20T13:06:56.677Z,4.93
2018-08-20T13:09:24.329Z,5.00
2018-08-20T13:11:52.375Z,4.03
2018-08-20T13:14:20.290Z,3.97
2018-08-20T13:16:48.656Z,4.60
2018-08-20T13:19:16.533Z,5.50
2018-08-20T13:21:44.262Z,5.90
2018-08-20T13:24:12.320Z,5.67
2018-08-20T13:26:40.029Z,4.20
2018-08-20T13:29:07.920Z,6.77
2018-08-20T13:31:35.964Z,4.83
2018-08-20T13:34:04.002Z,6.60
2018-08-20T13:36:32.153Z,5.57
2018-08-20T13:38:59.917Z,5.60
2018-08-20T13:41:27.622Z,4.80
2018-08-20T13:43:55.340Z,8.50
2018-08-20T13:46:23.253Z,6.37
2018-08-20T13:48:51.075Z,5.07
2018-08-20T13:51:18.964Z,5.40
2018-08-20T13:53:46.652Z,4.93
2018-08-20T13:56:14.316Z,5.00
2018-08-20T13:58:42.065Z,4.13
2018-08-20T14:01:09.731Z,4.00
2018-08-20T14:03:37.384Z,4.90
2018-08-20T14:06:05.167Z,3.77
2018-08-20T14:08:32.776Z,3.03
2018-08-20T14:11:00.983Z,4.30
2018-08-20T14:13:28.566Z,3.40
2018-08-20T14:15:56.585Z,4.83
2018-08-20T14:18:24.159Z,3.17
2018-08-20T14:21:03.878Z,3.40
2018-08-20T14:23:31.458Z,4.43
2018-08-20T14:25:59.153Z,4.53
2018-08-20T14:28:27.097Z,3.77
2018-08-20T14:30:54.614Z,3.50
2018-08-20T14:33:23.810Z,4.10
2018-08-20T14:35:51.482Z,4.30
2018-08-20T14:38:19.136Z,4.00
2018-08-20T14:40:46.847Z,4.30
2018-08-20T14:43:14.484Z,4.33
2018-08-20T14:45:47.941Z,5.60
2018-08-20T14:48:15.741Z,5.80
2018-08-20T14:50:43.417Z,4.90
2018-08-20T14:53:11.400Z,6.30
2018-08-20T14:55:38.956Z,5.17
2018-08-20T14:58:06.579Z,8.17
2018-08-20T15:00:34.206Z,5.30
2018-08-20T15:03:01.877Z,5.50
2018-08-20T15:05:29.543Z,4.90
2018-08-20T15:07:57.169Z,5.30
2018-08-20T15:10:24.945Z,5.57
2018-08-20T15:12:52.552Z,6.00
2018-08-20T15:15:20.425Z,5.03
2018-08-20T15:17:47.984Z,4.50
2018-08-20T15:20:15.641Z,4.90
2018-08-20T15:22:43.597Z,4.00
2018-08-20T15:25:11.391Z,4.13
2018-08-20T15:27:39.145Z,6.00
2018-08-20T15:30:07.708Z,4.33
2018-08-20T15:32:35.414Z,5.10
2018-08-20T15:35:03.118Z,5.37
2018-08-20T15:37:30.776Z,4.37
2018-08-20T15:39:58.741Z,4.67
2018-08-20T15:42:26.410Z,4.27
2018-08-20T15:44:59.526Z,3.87
2018-08-20T15:47:27.287Z,4.60
2018-08-20T15:49:55.130Z,3.73
2018-08-20T15:52:22.888Z,4.23
2018-08-20T15:54:50.599Z,3.30
2018-08-20T15:57:18.360Z,5.23
2018-08-20T15:59:46.121Z,4.07
2018-08-20T16:02:13.896Z,4.70
2018-08-20T16:04:41.707Z,3.83
2018-08-20T16:07:09.836Z,4.20
2018-08-20T16:09:37.440Z,4.83
2018-08-20T16:12:05.231Z,4.53
2018-08-20T16:14:32.990Z,4.47
2018-08-20T16:17:01.099Z,3.90
2018-08-20T16:19:29.412Z,4.00
2018-08-20T16:21:57.165Z,3.53
2018-08-20T16:24:25.001Z,4.73
2018-08-20T16:26:53.361Z,3.67
2018-08-20T16:29:21.128Z,4.50
2018-08-20T16:31:48.858Z,4.80
2018-08-20T16:34:16.791Z,4.13
2018-08-20T16:36:44.533Z,4.03
2018-08-20T16:39:12.919Z,2.93
2018-08-20T16:41:40.942Z,2.87
2018-08-20T16:44:15.896Z,3.97
2018-08-20T16:46:43.577Z,5.03
2018-08-20T16:49:11.626Z,3.87
2018-08-20T16:51:39.330Z,3.03
2018-08-20T16:54:07.915Z,2.80
2018-08-20T16:56:35.690Z,3.43
2018-08-20T16:59:04.332Z,3.00
2018-08-20T17:01:32.273Z,1.90
2018-08-20T17:04:00.155Z,2.50
2018-08-20T17:06:43.725Z,2.10
2018-08-20T17:09:11.547Z,1.90
2018-08-20T17:11:39.399Z,2.47
2018-08-20T17:14:07.294Z,2.53
2018-08-20T17:16:34.973Z,1.93
2018-08-20T17:19:02.732Z,1.83
2018-08-20T17:21:30.781Z,1.40
2018-08-20T17:23:58.519Z,8.20
2018-08-20T17:26:27.051Z,2.43
2018-08-20T17:28:57.015Z,3.43
2018-08-20T17:31:24.821Z,2.23
2018-08-20T17:33:52.877Z,2.60
2018-08-20T17:36:20.827Z,2.57
2018-08-20T17:38:48.587Z,2.70
2018-08-20T17:41:16.414Z,2.20
2018-08-20T17:43:44.236Z,2.33
2018-08-20T17:46:12.111Z,2.83
2018-08-20T17:48:39.762Z,2.17
2018-08-20T17:51:07.811Z,3.23
2018-08-20T17:53:46.738Z,2.50
2018-08-20T17:56:14.752Z,2.40
2018-08-20T17:58:42.408Z,2.40
2018-08-20T18:01:10.345Z,2.47
2018-08-20T18:03:38.124Z,3.53
2018-08-20T18:06:08.593Z,3.03
2018-08-20T18:08:36.405Z,2.20
2018-08-20T18:11:05.100Z,3.10
2018-08-20T18:13:44.877Z,2.20
2018-08-20T18:16:13.921Z,2.90
2018-08-20T18:18:43.388Z,2.97
2018-08-20T18:21:11.173Z,2.00
2018-08-20T18:23:38.990Z,2.97
2018-08-20T18:26:06.846Z,2.13
2018-08-20T18:28:42.052Z,2.80
2018-08-20T18:31:13.291Z,2.73
2018-08-20T18:33:42.612Z,2.80
2018-08-20T18:36:13.417Z,2.93
2018-08-20T18:38:50.329Z,2.73
2018-08-20T18:41:18.813Z,2.50
2018-08-20T18:43:46.697Z,2.50
2018-08-20T18:46:14.537Z,2.60
2018-08-20T18:48:42.541Z,2.70
2018-08-20T18:51:14.284Z,3.87
2018-08-20T18:53:42.197Z,2.63
2018-08-20T18:56:12.032Z,2.47
2018-08-20T18:58:39.774Z,2.70
2018-08-20T19:01:07.713Z,5.53
2018-08-20T19:03:41.079Z,2.67
2018-08-20T19:06:16.418Z,2.30
2018-08-20T19:08:44.936Z,2.60
2018-08-20T19:11:13.470Z,2.93
2018-08-20T19:13:42.108Z,3.07
2018-08-20T19:16:28.887Z,2.77
2018-08-20T19:18:56.646Z,4.40
2018-08-20T19:21:28.761Z,3.03
2018-08-20T19:23:58.335Z,5.30
2018-08-20T19:26:27.386Z,2.60
2018-08-20T19:28:55.258Z,3.23
2018-08-20T19:31:22.892Z,2.43
2018-08-20T19:33:51.524Z,3.03
2018-08-20T19:36:19.353Z,3.23
2018-08-20T19:38:47.182Z,2.93
2018-08-20T19:41:15.346Z,2.27
2018-08-20T19:43:49.583Z,3.03
2018-08-20T19:46:26.066Z,2.73
2018-08-20T19:49:13.288Z,2.90
2018-08-20T19:51:42.407Z,2.70
2018-08-20T19:54:12.939Z,2.37
2018-08-20T19:56:41.283Z,2.27
2018-08-20T19:59:09.650Z,4.37
2018-08-20T20:01:37.380Z,3.20
2018-08-20T20:04:05.398Z,3.73
2018-08-20T20:06:33.513Z,3.50
2018-08-20T20:09:07.849Z,3.07
2018-08-20T20:11:41.686Z,2.40
2018-08-20T20:14:09.483Z,3.40
2018-08-20T20:16:43.032Z,3.10
2018-08-20T20:19:11.345Z,3.17
2018-08-20T20:21:40.368Z,3.40
2018-08-20T20:24:09.865Z,2.57
2018-08-20T20:26:38.208Z,3.00
2018-08-20T20:29:09.449Z,3.00
2018-08-20T20:31:39.161Z,2.83
2018-08-20T20:34:07.062Z,5.07
2018-08-20T20:36:35.314Z,3.40
2018-08-20T20:39:04.708Z,4.07
2018-08-20T20:41:33.457Z,4.27
2018-08-20T20:44:01.106Z,4.73
2018-08-20T20:46:28.951Z,4.43
2018-08-20T20:48:56.857Z,4.13
2018-08-20T20:51:24.759Z,5.33
2018-08-20T20:53:52.504Z,5.13
2018-08-20T20:56:20.254Z,5.00
2018-08-20T20:58:48.889Z,4.70
2018-08-20T21:01:16.666Z,5.33
2018-08-20T21:03:44.474Z,5.00
2018-08-20T21:06:12.184Z,5.80
2018-08-20T21:08:46.670Z,6.47
2018-08-20T21:11:15.155Z,5.73
2018-08-20T21:13:43.425Z,5.40
2018-08-20T21:16:13.327Z,6.00
2018-08-20T21:18:44.207Z,5.60
2018-08-20T21:21:12.915Z,8.00
2018-08-20T21:23:41.305Z,4.80
2018-08-20T21:26:10.430Z,5.77
2018-08-20T21:28:42.049Z,9.20
2018-08-20T21:31:10.066Z,5.20
2018-08-20T21:33:38.249Z,6.00
2018-08-20T21:36:06.088Z,5.63
2018-08-20T21:38:34.261Z,5.33
2018-08-20T21:41:02.051Z,6.80
2018-08-20T21:43:35.296Z,5.80
2018-08-20T21:46:04.225Z,5.30
2018-08-20T21:48:31.931Z,5.40
2018-08-20T21:51:03.482Z,5.23
2018-08-20T21:53:34.261Z,3.57
2018-08-20T21:56:02.007Z,3.90
2018-08-20T21:58:30.105Z,4.77
2018-08-20T22:00:57.909Z,4.07
2018-08-20T22:03:25.393Z,4.40
2018-08-20T22:05:53.204Z,5.23
2018-08-20T22:08:21.072Z,4.03
2018-08-20T22:10:48.843Z,4.20
2018-08-20T22:13:16.470Z,4.37
2018-08-20T22:15:46.700Z,3.33
2018-08-20T22:18:14.395Z,3.43
2018-08-20T22:20:42.637Z,4.10
2018-08-20T22:23:25.018Z,3.33
2018-08-20T22:25:38.488Z,3.23
2018-08-20T22:28:06.153Z,4.50
2018-08-20T22:30:35.219Z,4.03
2018-08-20T22:33:02.901Z,4.20
2018-08-20T22:35:30.850Z,5.43
2018-08-20T22:37:58.486Z,3.83
2018-08-20T22:40:26.272Z,4.27
2018-08-20T22:42:57.496Z,4.50
2018-08-20T22:45:25.164Z,4.30
2018-08-20T22:47:52.805Z,3.73
2018-08-20T22:50:20.468Z,3.53
2018-08-20T22:52:49.625Z,5.10
2018-08-20T22:55:18.565Z,3.07
2018-08-20T22:58:18.268Z,3.83
2018-08-20T23:00:45.926Z,3.80
2018-08-20T23:03:13.567Z,3.40
2018-08-20T23:05:41.234Z,3.50
2018-08-20T23:08:13.138Z,2.43
2018-08-20T23:10:42.231Z,3.23
2018-08-20T23:13:09.872Z,3.20
2018-08-20T23:15:37.599Z,2.93
2018-08-20T23:18:05.369Z,3.40
2018-08-20T23:20:33.767Z,3.37
2018-08-20T23:23:01.748Z,3.53
2018-08-20T23:25:29.675Z,3.17
2018-08-20T23:27:57.374Z,4.10
2018-08-20T23:30:25.033Z,3.67
2018-08-20T23:32:52.739Z,3.73
2018-08-20T23:35:20.460Z,4.40
2018-08-20T23:37:48.282Z,4.10
2018-08-20T23:40:15.897Z,3.80
2018-08-20T23:42:43.544Z,3.67
2018-08-20T23:45:11.260Z,4.57
2018-08-20T23:47:38.932Z,5.00
2018-08-20T23:50:06.783Z,4.57
2018-08-20T23:52:34.463Z,6.00
2018-08-20T23:55:02.211Z,5.20
2018-08-20T23:57:29.867Z,5.33
2018-08-20T23:59:57.452Z,8.43
